Time;durP1;ratioP1;P1;durP2;ratioP2;P2;SDS_P1;SDS_P2;PMS_P1;PMS_P2;Temp;Humidity;BMP_temperature;BMP_pressure;BME280_temperature;BME280_humidity;BME280_pressure;Samples;Min_cycle;Max_cycle;Signal;HPM_P1;HPM_P2
2022/06/20 00:00:22;;;;;;;0.77;0.70;;;28.90;83.20;;;;;;5055196;28;20037;-62
2022/06/20 00:02:53;;;;;;;2.10;1.13;;;28.90;83.20;;;;;;5046937;28;20044;-58
2022/06/20 00:05:24;;;;;;;1.27;0.73;;;28.90;83.20;;;;;;5059159;28;20063;-61
2022/06/20 00:07:52;;;;;;;0.20;0.20;;;28.90;83.20;;;;;;5054422;28;20057;-60
2022/06/20 00:10:22;;;;;;;2.47;1.20;;;28.90;83.20;;;;;;5055422;28;20052;-57
2022/06/20 00:12:51;;;;;;;0.30;0.30;;;28.90;83.80;;;;;;5057628;28;20049;-56
2022/06/20 00:15:28;;;;;;;0.30;0.30;;;28.90;83.20;;;;;;5056753;28;20056;-58
2022/06/20 00:17:57;;;;;;;0.73;0.70;;;28.90;83.30;;;;;;5052740;28;20488;-59
2022/06/20 00:20:25;;;;;;;2.60;1.05;;;28.90;83.30;;;;;;5065104;28;20065;-63
2022/06/20 00:22:54;;;;;;;0.57;0.43;;;28.90;83.30;;;;;;5070904;28;20048;-61
2022/06/20 00:25:22;;;;;;;1.70;0.65;;;28.90;83.90;;;;;;5069028;28;20306;-59
2022/06/20 00:27:53;;;;;;;2.17;1.00;;;28.90;83.30;;;;;;5057909;28;20416;-60
2022/06/20 00:30:21;;;;;;;3.92;1.73;;;28.90;83.40;;;;;;5053795;28;20049;-63
2022/06/20 00:32:49;;;;;;;0.30;0.30;;;28.90;83.40;;;;;;5052489;28;20048;-56
2022/06/20 00:35:17;;;;;;;0.40;0.40;;;28.90;83.40;;;;;;5062194;28;20040;-57
2022/06/20 00:37:44;;;;;;;;;;;28.90;83.30;;;;;;5052286;28;20040;-59
2022/06/20 00:40:35;;;;;;;7.32;2.80;;;28.80;83.30;;;;;;5063095;28;19957;-58
2022/06/20 00:43:05;;;;;;;0.35;0.35;;;28.90;83.40;;;;;;5062697;28;20119;-58
2022/06/20 00:45:38;;;;;;;0.90;0.68;;;28.80;83.30;;;;;;5067239;28;20047;-64
2022/06/20 00:48:13;;;;;;;0.65;0.63;;;28.80;83.40;;;;;;5062282;28;20427;-58
2022/06/20 00:50:45;;;;;;;2.40;1.63;;;28.80;83.40;;;;;;5062797;28;20519;-60
2022/06/20 00:53:32;;;;;;;0.45;0.45;;;28.80;83.30;;;;;;5054259;28;20047;-60
2022/06/20 00:56:12;;;;;;;0.30;0.30;;;28.80;83.40;;;;;;5064951;28;20056;-58
2022/06/20 00:58:55;;;;;;;0.65;0.65;;;28.80;83.40;;;;;;5063677;28;20044;-60
2022/06/20 01:01:31;;;;;;;0.30;0.30;;;28.80;83.40;;;;;;5083673;28;20056;-55
2022/06/20 01:04:05;;;;;;;0.35;0.35;;;28.80;83.40;;;;;;5052824;28;20400;-56
2022/06/20 01:06:36;;;;;;;0.47;0.47;;;28.80;83.40;;;;;;5052953;28;20049;-60
2022/06/20 01:09:07;;;;;;;0.75;0.65;;;28.80;83.40;;;;;;5057768;28;20048;-62
2022/06/20 01:11:45;;;;;;;1.38;0.52;;;28.80;83.40;;;;;;5070980;28;20044;-56
2022/06/20 01:14:26;;;;;;;0.30;0.30;;;28.80;83.40;;;;;;5050759;28;20045;-59
2022/06/20 01:16:57;;;;;;;2.35;1.27;;;28.80;83.40;;;;;;5051667;28;20045;-59
2022/06/20 01:19:44;;;;;;;0.50;0.50;;;28.80;83.40;;;;;;5051011;28;20052;-59
2022/06/20 01:22:34;;;;;;;0.20;0.20;;;28.80;83.50;;;;;;5051200;28;20047;-57
2022/06/20 01:25:11;;;;;;;1.10;1.02;;;28.80;83.50;;;;;;5054951;28;20051;-58
2022/06/20 01:27:44;;;;;;;0.75;0.75;;;28.80;83.50;;;;;;5063890;28;20699;-59
2022/06/20 01:30:12;;;;;;;0.38;0.38;;;28.80;83.50;;;;;;5057611;28;20056;-60
2022/06/20 01:32:41;;;;;;;1.55;0.80;;;28.80;83.60;;;;;;5072138;28;20052;-59
2022/06/20 01:35:11;;;;;;;1.50;1.20;;;28.80;83.60;;;;;;5045621;28;20048;-62
2022/06/20 01:37:41;;;;;;;0.95;0.80;;;28.80;83.60;;;;;;5080964;28;20049;-60
2022/06/20 01:40:13;;;;;;;0.28;0.28;;;28.80;83.60;;;;;;5078002;28;20045;-59
2022/06/20 01:42:42;;;;;;;0.45;0.45;;;28.70;83.50;;;;;;5081268;28;20047;-60
2022/06/20 01:48:12;;;;;;;0.40;0.40;;;28.80;83.70;;;;;;5057639;28;20041;-60
2022/06/20 01:50:42;;;;;;;0.40;0.40;;;28.80;83.70;;;;;;5056645;28;20052;-59
2022/06/20 01:53:12;;;;;;;0.70;0.70;;;28.80;83.70;;;;;;5049062;28;20044;-61
2022/06/20 01:55:43;;;;;;;0.90;0.68;;;28.70;83.70;;;;;;5050896;28;20418;-58
2022/06/20 01:58:31;;;;;;;1.20;0.52;;;28.70;83.70;;;;;;5048617;28;20060;-62
2022/06/20 02:01:00;;;;;;;0.50;0.47;;;28.70;83.70;;;;;;5051653;28;20060;-58
2022/06/20 02:03:31;;;;;;;0.55;0.40;;;28.70;83.70;;;;;;5058334;28;20044;-60
2022/06/20 02:05:59;;;;;;;0.40;0.40;;;28.70;83.80;;;;;;5063702;28;20064;-57
2022/06/20 02:08:27;;;;;;;0.70;0.70;;;28.70;83.70;;;;;;5066035;28;20040;-61
2022/06/20 02:11:01;;;;;;;0.52;0.52;;;28.70;83.80;;;;;;5062563;28;20489;-63
2022/06/20 02:13:32;;;;;;;0.57;0.57;;;28.70;83.80;;;;;;5051529;28;20075;-60
2022/06/20 02:16:03;;;;;;;1.00;0.55;;;28.60;83.80;;;;;;5050051;28;20174;-59
2022/06/20 02:18:33;;;;;;;0.20;0.20;;;28.60;83.80;;;;;;5057136;28;20048;-61
2022/06/20 02:21:04;;;;;;;0.35;0.35;;;28.60;83.80;;;;;;5066683;28;20060;-62
2022/06/20 02:23:36;;;;;;;0.30;0.30;;;28.60;83.80;;;;;;5067168;28;20049;-57
2022/06/20 02:26:06;;;;;;;7.25;1.38;;;28.70;83.80;;;;;;5051667;28;20179;-55
2022/06/20 02:28:48;;;;;;;0.32;0.32;;;28.60;83.80;;;;;;5058497;28;20052;-59
2022/06/20 02:31:16;;;;;;;0.40;0.40;;;28.60;83.80;;;;;;5052382;28;20055;-58
2022/06/20 02:33:46;;;;;;;0.25;0.25;;;28.60;83.80;;;;;;5068070;28;20053;-60
2022/06/20 02:36:14;;;;;;;1.35;1.10;;;28.60;83.80;;;;;;5049497;28;20060;-59
2022/06/20 02:38:42;;;;;;;0.65;0.55;;;28.60;83.80;;;;;;5063318;28;20057;-61
2022/06/20 02:41:11;;;;;;;1.00;0.85;;;28.60;83.80;;;;;;5037984;28;20064;-61
2022/06/20 02:44:00;;;;;;;0.20;0.20;;;28.60;83.90;;;;;;5049834;28;20078;-58
2022/06/20 02:46:30;;;;;;;0.30;0.30;;;28.60;83.80;;;;;;5059579;28;20040;-56
2022/06/20 02:49:01;;;;;;;0.57;0.57;;;28.60;83.80;;;;;;5057361;28;20048;-58
2022/06/20 02:51:35;;;;;;;0.22;0.22;;;28.60;83.90;;;;;;5060504;28;20075;-61
2022/06/20 02:54:05;;;;;;;0.45;0.45;;;28.60;83.90;;;;;;5046612;28;20405;-64
2022/06/20 02:56:39;;;;;;;0.75;0.75;;;28.60;83.90;;;;;;5047582;28;20045;-58
2022/06/20 02:59:19;;;;;;;0.85;0.57;;;28.60;83.90;;;;;;5048336;28;20063;-62
2022/06/20 03:01:57;;;;;;;3.45;1.25;;;28.60;83.90;;;;;;5056996;28;20044;-62
2022/06/20 03:04:24;;;;;;;1.45;1.00;;;28.50;83.80;;;;;;5046982;28;20044;-57
2022/06/20 03:06:56;;;;;;;0.40;0.40;;;28.50;83.80;;;;;;5046783;28;20045;-58
2022/06/20 03:09:28;;;;;;;0.20;0.20;;;28.50;83.80;;;;;;5050718;28;20048;-61
2022/06/20 03:11:56;;;;;;;0.20;0.20;;;28.50;83.90;;;;;;5063365;28;20048;-56
2022/06/20 03:14:33;;;;;;;0.90;0.88;;;28.60;83.90;;;;;;5046852;28;20052;-64
2022/06/20 03:17:03;;;;;;;0.43;0.43;;;28.50;83.90;;;;;;5063249;28;20056;-62
2022/06/20 03:19:33;;;;;;;0.73;0.73;;;28.60;83.90;;;;;;5062587;28;20044;-61
2022/06/20 03:22:05;;;;;;;0.30;0.30;;;28.50;83.90;;;;;;5063414;28;20391;-63
2022/06/20 03:24:34;;;;;;;0.30;0.30;;;28.50;83.90;;;;;;5049296;28;20061;-58
2022/06/20 03:27:03;;;;;;;0.57;0.57;;;28.50;83.90;;;;;;5068545;28;20044;-61
2022/06/20 03:29:30;;;;;;;1.48;0.70;;;28.50;83.90;;;;;;5050983;28;20120;-57
2022/06/20 03:31:58;;;;;;;7.35;0.98;;;28.50;83.90;;;;;;5077565;28;20056;-62
2022/06/20 03:34:25;;;;;;;;;;;28.50;83.90;;;;;;5064735;28;20071;-60
2022/06/20 03:36:56;;;;;;;0.93;0.70;;;28.50;84.00;;;;;;5058950;28;19928;-60
2022/06/20 03:39:23;;;;;;;;;;;28.50;84.00;;;;;;5055477;28;20045;-60
2022/06/20 03:41:51;;;;;;;0.50;0.50;;;28.50;83.90;;;;;;5060960;28;19924;-63
2022/06/20 03:44:36;;;;;;;7.28;1.33;;;28.50;83.90;;;;;;5052040;28;20041;-58
2022/06/20 03:47:22;;;;;;;1.27;1.17;;;28.50;83.90;;;;;;5049928;28;20048;-64
2022/06/20 03:49:57;;;;;;;0.43;0.43;;;28.40;83.90;;;;;;5049427;28;20064;-61
2022/06/20 03:52:33;;;;;;;1.48;1.00;;;28.50;84.00;;;;;;5050969;28;20060;-57
2022/06/20 03:55:10;;;;;;;1.20;0.63;;;28.50;84.00;;;;;;5057978;28;20360;-62
2022/06/20 03:57:50;;;;;;;1.00;0.40;;;28.40;83.90;;;;;;5051638;28;20144;-58
2022/06/20 04:00:24;;;;;;;0.68;0.40;;;28.50;84.00;;;;;;5055759;28;20049;-60
2022/06/20 04:03:05;;;;;;;0.30;0.30;;;28.50;84.00;;;;;;5033466;28;20053;-58
2022/06/20 04:05:57;;;;;;;0.20;0.20;;;28.40;83.80;;;;;;5058952;28;20052;-59
2022/06/20 04:11:34;;;;;;;0.40;0.40;;;28.40;83.90;;;;;;5063410;28;20063;-59
2022/06/20 04:14:28;;;;;;;1.05;0.85;;;28.50;84.00;;;;;;5049874;28;20044;-58
2022/06/20 04:18:26;;;;;;;1.85;1.10;;;28.40;83.80;;;;;;5059692;28;20064;-61
2022/06/20 04:19:50;;;;;;;0.20;0.20;;;28.50;83.90;;;;;;5051586;28;20100;-65
2022/06/20 04:22:22;;;;;;;1.65;0.73;;;28.50;83.90;;;;;;5050265;28;20059;-59
2022/06/20 04:24:53;;;;;;;0.43;0.43;;;28.50;83.90;;;;;;5051976;28;20049;-58
2022/06/20 04:27:36;;;;;;;1.30;0.93;;;28.50;83.90;;;;;;5050102;28;20060;-65
2022/06/20 04:30:52;;;;;;;0.30;0.30;;;28.40;83.90;;;;;;5059600;28;20140;-59
2022/06/20 04:33:24;;;;;;;0.30;0.30;;;28.40;83.80;;;;;;4952544;28;20078;-59
2022/06/20 04:36:22;;;;;;;0.40;0.40;;;28.40;83.90;;;;;;5002967;28;20462;-62
2022/06/20 04:38:57;;;;;;;0.80;0.65;;;28.40;83.90;;;;;;4994191;28;20050;-58
2022/06/20 04:41:44;;;;;;;1.08;0.68;;;28.40;83.90;;;;;;4989363;28;20046;-57
2022/06/20 04:44:38;;;;;;;0.43;0.43;;;28.40;83.80;;;;;;4986783;28;20043;-60
2022/06/20 04:47:08;;;;;;;0.40;0.40;;;28.40;83.90;;;;;;4978639;28;20932;-62
2022/06/20 04:49:38;;;;;;;0.93;0.70;;;28.40;83.90;;;;;;4987592;28;20190;-63
2022/06/20 04:52:12;;;;;;;0.47;0.47;;;28.40;83.90;;;;;;4986968;28;20077;-63
2022/06/20 04:54:40;;;;;;;2.72;1.23;;;28.40;83.90;;;;;;4986461;28;20062;-58
2022/06/20 04:57:10;;;;;;;0.25;0.25;;;28.40;83.90;;;;;;4975166;28;20376;-58
2022/06/20 04:59:38;;;;;;;0.63;0.63;;;28.40;84.00;;;;;;4988496;28;20054;-57
2022/06/20 05:02:10;;;;;;;0.40;0.40;;;28.40;83.90;;;;;;4988369;28;20054;-58
2022/06/20 05:04:41;;;;;;;0.40;0.40;;;28.40;83.90;;;;;;5042505;28;20045;-60
2022/06/20 05:07:20;;;;;;;0.88;0.47;;;28.40;83.90;;;;;;5060804;28;20477;-63
2022/06/20 05:10:18;;;;;;;0.40;0.40;;;28.40;84.00;;;;;;5065413;28;20048;-64
2022/06/20 05:12:50;;;;;;;1.77;1.10;;;28.40;84.00;;;;;;5049516;28;20511;-59
2022/06/20 05:15:30;;;;;;;0.20;0.20;;;28.30;83.90;;;;;;5061484;28;20479;-62
2022/06/20 05:18:01;;;;;;;0.90;0.57;;;28.40;83.90;;;;;;5069055;28;20048;-61
2022/06/20 05:20:35;;;;;;;0.40;0.40;;;28.30;83.90;;;;;;5049681;28;20044;-61
2022/06/20 05:23:13;;;;;;;1.20;0.77;;;28.40;83.90;;;;;;5050320;28;20045;-59
2022/06/20 05:25:42;;;;;;;0.50;0.50;;;28.30;83.90;;;;;;5057092;28;20045;-59
2022/06/20 05:28:17;;;;;;;0.30;0.30;;;28.40;84.00;;;;;;5048847;28;20052;-56
2022/06/20 05:30:46;;;;;;;0.65;0.65;;;28.40;84.00;;;;;;5066940;28;20056;-58
2022/06/20 05:33:39;;;;;;;1.20;0.88;;;28.30;84.60;;;;;;5072141;28;20428;-53
2022/06/20 05:36:23;;;;;;;0.63;0.38;;;28.30;84.00;;;;;;5052868;28;20041;-59
2022/06/20 05:39:15;;;;;;;0.50;0.40;;;28.30;84.00;;;;;;5035447;28;20060;-53
2022/06/20 05:41:43;;;;;;;0.30;0.30;;;28.30;83.90;;;;;;5068218;28;20056;-58
2022/06/20 05:44:12;;;;;;;0.35;0.35;;;28.30;84.00;;;;;;5053487;28;20052;-59
2022/06/20 05:46:49;;;;;;;0.32;0.32;;;28.40;84.10;;;;;;5055478;28;20048;-57
2022/06/20 05:49:25;;;;;;;3.05;1.40;;;28.30;84.00;;;;;;5042886;28;20104;-54
2022/06/20 05:51:55;;;;;;;0.20;0.20;;;28.40;84.00;;;;;;5068047;28;20131;-54
2022/06/20 05:54:35;;;;;;;0.38;0.38;;;28.30;83.90;;;;;;5059860;28;20052;-54
2022/06/20 05:57:12;;;;;;;0.20;0.20;;;28.40;84.00;;;;;;5053046;28;20124;-53
2022/06/20 05:59:51;;;;;;;0.38;0.38;;;28.30;83.90;;;;;;5056790;28;20400;-55
2022/06/20 06:02:40;;;;;;;0.30;0.30;;;28.40;84.00;;;;;;5049069;28;20056;-52
2022/06/20 06:05:33;;;;;;;2.25;0.75;;;28.30;84.00;;;;;;5048157;28;20068;-53
2022/06/20 06:08:14;;;;;;;0.80;0.60;;;28.30;84.00;;;;;;5047730;28;20495;-56
2022/06/20 06:11:13;;;;;;;0.40;0.40;;;28.40;84.00;;;;;;5054461;28;20041;-53
2022/06/20 06:13:54;;;;;;;0.47;0.47;;;28.30;84.00;;;;;;5047821;28;20057;-60
2022/06/20 06:16:46;;;;;;;0.90;0.47;;;28.30;84.10;;;;;;5062419;28;20047;-56
2022/06/20 06:19:38;;;;;;;0.20;0.20;;;28.30;84.00;;;;;;5051579;28;20055;-55
2022/06/20 06:22:12;;;;;;;0.32;0.32;;;28.30;84.00;;;;;;5048292;28;20140;-56
2022/06/20 06:24:43;;;;;;;0.40;0.40;;;28.30;84.00;;;;;;5049655;28;20261;-54
2022/06/20 06:27:20;;;;;;;0.75;0.73;;;28.30;84.00;;;;;;5048861;28;20044;-56
2022/06/20 06:30:04;;;;;;;0.50;0.50;;;28.30;84.00;;;;;;5051822;28;20071;-55
2022/06/20 06:32:38;;;;;;;0.30;0.30;;;28.30;84.10;;;;;;5064206;28;20048;-61
2022/06/20 06:35:21;;;;;;;0.55;0.55;;;28.30;84.10;;;;;;5055075;28;20049;-59
2022/06/20 06:37:53;;;;;;;1.05;0.88;;;28.30;84.00;;;;;;5049057;28;20071;-57
2022/06/20 06:40:46;;;;;;;0.50;0.50;;;28.30;84.10;;;;;;5060114;28;20049;-53
2022/06/20 06:43:29;;;;;;;1.00;0.90;;;28.30;84.00;;;;;;5046920;28;20096;-57
2022/06/20 06:46:00;;;;;;;0.38;0.38;;;28.30;84.10;;;;;;5054525;28;20112;-58
2022/06/20 06:48:35;;;;;;;0.30;0.30;;;28.30;84.00;;;;;;5047383;28;20365;-55
2022/06/20 06:51:18;;;;;;;0.68;0.68;;;28.20;84.00;;;;;;5040671;28;20064;-59
2022/06/20 06:53:52;;;;;;;0.40;0.40;;;28.30;84.10;;;;;;5047308;28;20048;-59
2022/06/20 06:56:37;;;;;;;0.60;0.60;;;28.30;84.00;;;;;;5067011;28;20486;-58
2022/06/20 06:59:14;;;;;;;0.90;0.68;;;28.20;84.00;;;;;;5048097;28;20041;-57
2022/06/20 07:01:50;;;;;;;0.88;0.50;;;28.20;84.10;;;;;;5052764;28;20701;-60
2022/06/20 07:04:18;;;;;;;0.40;0.40;;;28.20;84.10;;;;;;5063947;28;20063;-60
2022/06/20 07:06:55;;;;;;;0.30;0.30;;;28.20;84.10;;;;;;5058828;28;20052;-56
2022/06/20 07:09:31;;;;;;;;;;;28.20;84.10;;;;;;5057096;28;20499;-58
2022/06/20 07:12:03;;;;;;;0.77;0.77;;;28.20;84.10;;;;;;5061093;28;19925;-56
2022/06/20 07:14:35;;;;;;;0.85;0.85;;;28.20;84.10;;;;;;5049142;28;20052;-57
2022/06/20 07:17:11;;;;;;;1.55;0.88;;;28.20;84.10;;;;;;5051147;28;20558;-56
2022/06/20 07:19:44;;;;;;;0.52;0.52;;;28.20;84.10;;;;;;5060810;28;20053;-60
2022/06/20 07:22:14;;;;;;;0.55;0.55;;;28.20;84.10;;;;;;5046929;28;20041;-58
2022/06/20 07:24:44;;;;;;;0.55;0.55;;;28.20;84.10;;;;;;5054163;28;20045;-58
2022/06/20 07:27:19;;;;;;;0.35;0.35;;;28.20;84.10;;;;;;5059521;28;20036;-61
2022/06/20 07:30:04;;;;;;;0.43;0.43;;;28.20;84.00;;;;;;5055138;28;20044;-57
2022/06/20 07:32:35;;;;;;;0.85;0.57;;;28.20;84.00;;;;;;5068108;28;20075;-57
2022/06/20 07:35:09;;;;;;;1.40;0.82;;;28.20;84.10;;;;;;5053579;28;20043;-57
2022/06/20 07:37:47;;;;;;;0.40;0.40;;;28.20;84.10;;;;;;5048626;28;20049;-55
2022/06/20 07:40:28;;;;;;;0.40;0.40;;;28.20;84.10;;;;;;5050961;28;20044;-59
2022/06/20 07:43:14;;;;;;;0.32;0.32;;;28.10;84.00;;;;;;5051393;28;20049;-54
2022/06/20 07:45:46;;;;;;;0.30;0.30;;;28.20;84.10;;;;;;5058101;28;20052;-58
2022/06/20 07:48:20;;;;;;;0.65;0.65;;;28.20;84.10;;;;;;5063564;28;20052;-56
2022/06/20 07:50:51;;;;;;;0.22;0.22;;;28.20;84.20;;;;;;5033114;28;20052;-58
2022/06/20 07:53:30;;;;;;;0.30;0.30;;;28.20;84.10;;;;;;5047970;28;20421;-59
2022/06/20 07:56:03;;;;;;;0.40;0.40;;;28.10;84.10;;;;;;5033472;28;20049;-59
2022/06/20 07:58:35;;;;;;;0.40;0.40;;;28.10;84.10;;;;;;5053370;28;20420;-61
2022/06/20 08:01:17;;;;;;;0.40;0.40;;;28.10;84.20;;;;;;5065618;28;20411;-61
2022/06/20 08:04:00;;;;;;;0.32;0.32;;;28.10;84.20;;;;;;5050319;28;20052;-60
2022/06/20 08:06:42;;;;;;;0.63;0.63;;;28.10;84.20;;;;;;5050380;28;20517;-60
2022/06/20 08:09:22;;;;;;;0.60;0.60;;;28.10;84.20;;;;;;5055311;28;20045;-61
2022/06/20 08:11:58;;;;;;;0.35;0.35;;;28.10;84.20;;;;;;5059843;28;20060;-58
2022/06/20 08:14:38;;;;;;;0.75;0.75;;;28.10;84.30;;;;;;5050999;28;20049;-58
2022/06/20 08:17:08;;;;;;;0.25;0.25;;;28.10;84.20;;;;;;5061714;28;20052;-57
2022/06/20 08:19:39;;;;;;;0.40;0.40;;;28.10;84.30;;;;;;5067037;28;20056;-60
2022/06/20 08:22:47;;;;;;;0.20;0.20;;;28.10;84.30;;;;;;5054012;28;20049;-59
2022/06/20 08:25:14;;;;;;;0.55;0.55;;;28.10;84.30;;;;;;5039369;28;20052;-60
2022/06/20 08:27:57;;;;;;;0.22;0.22;;;28.10;84.30;;;;;;5054639;28;20061;-57
2022/06/20 08:30:39;;;;;;;0.98;0.63;;;28.10;84.30;;;;;;5055379;28;20055;-58
2022/06/20 08:33:27;;;;;;;0.47;0.47;;;28.10;84.30;;;;;;5063561;28;20052;-60
2022/06/20 08:36:03;;;;;;;2.67;0.95;;;28.10;84.40;;;;;;5052965;28;20044;-57
2022/06/20 08:38:44;;;;;;;0.28;0.28;;;28.10;84.40;;;;;;5055824;28;20523;-57
2022/06/20 08:41:45;;;;;;;0.40;0.40;;;28.00;84.40;;;;;;5067725;28;20045;-61
2022/06/20 08:44:31;;;;;;;0.40;0.40;;;28.10;84.50;;;;;;5051253;28;20404;-58
2022/06/20 08:47:15;;;;;;;0.30;0.30;;;28.10;84.40;;;;;;5069084;28;20047;-58
2022/06/20 08:50:16;;;;;;;3.08;1.38;;;28.00;84.40;;;;;;5060801;28;20048;-56
2022/06/20 08:53:07;;;;;;;0.40;0.40;;;28.00;84.40;;;;;;5051158;28;20654;-56
2022/06/20 08:56:10;;;;;;;0.70;0.70;;;28.00;84.40;;;;;;5063420;28;20041;-57
2022/06/20 08:58:54;;;;;;;0.43;0.43;;;28.00;84.40;;;;;;5052911;28;20492;-58
2022/06/20 09:01:32;;;;;;;0.32;0.30;;;28.00;84.40;;;;;;5067237;28;20499;-57
2022/06/20 09:04:18;;;;;;;0.25;0.25;;;28.00;84.40;;;;;;5053635;28;20045;-57
2022/06/20 09:06:50;;;;;;;0.50;0.50;;;28.00;84.40;;;;;;5053696;28;20542;-57
2022/06/20 09:09:37;;;;;;;0.40;0.40;;;28.00;84.40;;;;;;5062219;28;20485;-59
2022/06/20 09:12:04;;;;;;;;;;;28.00;84.50;;;;;;5065688;28;20625;-59
2022/06/20 09:14:44;;;;;;;0.38;0.38;;;28.00;84.50;;;;;;5066854;28;19925;-55
2022/06/20 09:17:25;;;;;;;0.40;0.40;;;28.00;84.40;;;;;;5057232;28;20040;-57
2022/06/20 09:20:17;;;;;;;0.55;0.55;;;28.00;84.50;;;;;;5059828;28;20060;-58
2022/06/20 09:22:54;;;;;;;2.20;1.05;;;28.00;84.40;;;;;;5055124;28;20047;-58
2022/06/20 09:25:30;;;;;;;0.20;0.20;;;28.00;84.40;;;;;;5049672;28;20137;-55
2022/06/20 09:28:36;;;;;;;0.20;0.20;;;28.00;84.40;;;;;;5061114;28;20148;-57
2022/06/20 09:31:20;;;;;;;0.40;0.40;;;28.00;84.50;;;;;;5057617;28;20048;-58
2022/06/20 09:34:03;;;;;;;1.35;0.88;;;28.00;84.50;;;;;;5083253;28;20072;-56
2022/06/20 09:37:22;;;;;;;2.50;0.75;;;28.00;84.40;;;;;;5051553;28;20045;-59
2022/06/20 09:40:09;;;;;;;0.43;0.43;;;28.00;84.50;;;;;;4962296;28;20058;-56
2022/06/20 09:42:55;;;;;;;0.30;0.30;;;28.00;84.50;;;;;;5050907;28;20550;-54
2022/06/20 09:45:44;;;;;;;0.45;0.45;;;27.90;84.50;;;;;;5057598;28;20511;-56
2022/06/20 09:48:19;;;;;;;2.25;0.60;;;28.00;84.50;;;;;;5050667;28;20496;-58
2022/06/20 09:50:59;;;;;;;0.25;0.25;;;28.00;84.50;;;;;;5053442;28;20045;-55
2022/06/20 09:54:02;;;;;;;0.30;0.30;;;28.00;84.50;;;;;;5035042;28;20052;-56
2022/06/20 09:57:10;;;;;;;0.20;0.20;;;28.00;84.50;;;;;;5064190;28;20049;-58
2022/06/20 09:59:57;;;;;;;0.20;0.20;;;28.00;84.40;;;;;;5063422;28;20424;-55
2022/06/20 10:02:29;;;;;;;0.75;0.50;;;27.90;84.40;;;;;;5055688;28;20068;-58
2022/06/20 10:05:25;;;;;;;0.73;0.73;;;28.00;84.40;;;;;;5067344;28;20067;-58
2022/06/20 10:08:25;;;;;;;0.32;0.32;;;27.90;84.40;;;;;;5027926;28;20057;-56
2022/06/20 10:11:23;;;;;;;0.40;0.40;;;27.90;84.40;;;;;;5061883;28;20045;-57
2022/06/20 10:13:57;;;;;;;0.45;0.45;;;27.90;84.40;;;;;;5055106;28;20052;-59
2022/06/20 10:16:39;;;;;;;2.10;0.88;;;27.90;84.40;;;;;;5070379;28;20071;-58
2022/06/20 10:19:53;;;;;;;0.35;0.35;;;27.90;84.40;;;;;;5056431;28;20044;-56
2022/06/20 10:22:34;;;;;;;0.40;0.40;;;27.90;84.40;;;;;;4950277;28;20354;-56
2022/06/20 10:25:36;;;;;;;0.43;0.43;;;27.90;84.40;;;;;;5037245;28;20072;-56
2022/06/20 10:28:30;;;;;;;0.20;0.20;;;27.90;84.40;;;;;;5048340;28;20049;-58
2022/06/20 10:31:07;;;;;;;0.52;0.52;;;27.90;84.40;;;;;;5048108;28;20067;-58
2022/06/20 10:34:05;;;;;;;0.85;0.65;;;27.90;84.40;;;;;;5047829;28;20057;-55
2022/06/20 10:36:38;;;;;;;0.20;0.20;;;27.90;84.40;;;;;;5047945;28;20068;-58
2022/06/20 10:39:24;;;;;;;1.67;0.93;;;27.90;84.40;;;;;;5048313;28;20053;-61
2022/06/20 10:42:06;;;;;;;0.38;0.38;;;27.90;84.40;;;;;;5054206;28;20045;-53
2022/06/20 10:45:01;;;;;;;0.25;0.25;;;27.90;84.40;;;;;;5041973;28;20045;-55
2022/06/20 10:47:37;;;;;;;0.20;0.20;;;27.80;84.40;;;;;;5064001;28;20571;-55
2022/06/20 10:50:23;;;;;;;0.35;0.30;;;27.90;84.40;;;;;;5058657;28;20056;-55
2022/06/20 10:53:12;;;;;;;0.30;0.30;;;27.90;84.50;;;;;;5057421;28;20051;-61
2022/06/20 10:55:45;;;;;;;0.28;0.28;;;27.90;84.40;;;;;;5060182;28;20045;-58
2022/06/20 10:58:19;;;;;;;0.75;0.50;;;27.90;84.40;;;;;;5059277;28;20051;-60
2022/06/20 11:00:58;;;;;;;1.48;1.05;;;27.90;84.50;;;;;;5063029;28;20079;-59
2022/06/20 11:03:58;;;;;;;0.40;0.40;;;27.90;84.50;;;;;;5052738;28;20060;-60
2022/06/20 11:06:34;;;;;;;1.25;0.82;;;27.90;84.40;;;;;;5017147;28;20071;-61
2022/06/20 11:09:37;;;;;;;0.20;0.20;;;27.80;84.40;;;;;;5051554;28;20041;-57
2022/06/20 11:12:10;;;;;;;1.10;0.57;;;27.80;84.40;;;;;;5061370;28;20484;-54
2022/06/20 11:14:53;;;;;;;0.60;0.60;;;27.80;84.40;;;;;;5034550;28;20053;-59
2022/06/20 11:17:44;;;;;;;0.20;0.20;;;27.80;84.30;;;;;;5033306;28;20412;-60
2022/06/20 11:20:19;;;;;;;0.20;0.20;;;27.80;84.40;;;;;;5058408;28;20165;-61
2022/06/20 11:23:01;;;;;;;1.23;0.65;;;27.80;84.40;;;;;;5049688;28;21052;-53
2022/06/20 11:25:46;;;;;;;1.15;0.63;;;27.80;84.40;;;;;;5061893;28;20045;-58
2022/06/20 11:28:57;;;;;;;0.85;0.68;;;27.80;84.30;;;;;;5048257;28;20045;-56
2022/06/20 11:32:06;;;;;;;0.20;0.20;;;27.80;84.40;;;;;;5038291;28;20040;-57
2022/06/20 11:35:11;;;;;;;0.70;0.47;;;27.80;84.40;;;;;;5064217;28;20052;-57
2022/06/20 11:37:48;;;;;;;0.30;0.30;;;27.80;84.40;;;;;;5052039;28;20052;-59
2022/06/20 11:40:37;;;;;;;0.90;0.50;;;27.80;84.40;;;;;;5063493;28;20115;-55
2022/06/20 11:43:22;;;;;;;0.45;0.45;;;27.80;84.40;;;;;;5062171;28;20443;-55
2022/06/20 11:46:04;;;;;;;0.22;0.22;;;27.80;84.40;;;;;;5059771;28;20044;-56
2022/06/20 11:48:40;;;;;;;0.90;0.82;;;27.80;84.40;;;;;;5047951;28;20056;-57
2022/06/20 11:51:10;;;;;;;0.20;0.20;;;27.80;84.40;;;;;;5033741;28;20049;-60
2022/06/20 11:53:44;;;;;;;0.30;0.30;;;27.70;84.40;;;;;;5048176;28;20064;-59
2022/06/20 11:56:29;;;;;;;0.20;0.20;;;27.70;84.30;;;;;;5055172;28;20326;-55
2022/06/20 11:59:47;;;;;;;0.60;0.60;;;27.80;84.40;;;;;;5050827;28;20048;-58
2022/06/20 12:02:23;;;;;;;0.30;0.30;;;27.70;84.30;;;;;;5047757;28;20523;-58
2022/06/20 12:05:00;;;;;;;0.32;0.32;;;27.70;84.30;;;;;;5052103;28;20048;-54
2022/06/20 12:07:54;;;;;;;0.20;0.20;;;27.70;84.30;;;;;;5047392;28;20052;-56
2022/06/20 12:10:57;;;;;;;1.50;1.07;;;27.70;84.30;;;;;;5053971;28;20045;-57
2022/06/20 12:13:29;;;;;;;0.35;0.35;;;27.80;84.40;;;;;;5059624;28;20064;-56
2022/06/20 12:16:21;;;;;;;0.45;0.45;;;27.70;84.30;;;;;;5054629;28;20049;-57
2022/06/20 12:25:04;;;;;;;0.25;0.25;;;27.70;84.30;;;;;;5057060;28;20454;-58
2022/06/20 12:27:32;;;;;;;0.22;0.22;;;27.70;84.20;;;;;;5049686;28;20045;-58
2022/06/20 12:29:59;;;;;;;;;;;27.70;84.20;;;;;;5058201;28;20059;-55
2022/06/20 12:32:34;;;;;;;0.32;0.32;;;27.70;84.20;;;;;;5075931;28;19924;-59
2022/06/20 12:35:11;;;;;;;0.20;0.20;;;27.70;84.20;;;;;;5069045;28;20466;-56
2022/06/20 12:37:43;;;;;;;;;;;27.70;84.10;;;;;;5051648;28;20052;-56
2022/06/20 12:40:10;;;;;;;0.30;0.30;;;27.70;84.20;;;;;;5066244;28;20258;-58
2022/06/20 12:43:26;;;;;;;1.25;0.77;;;27.70;84.10;;;;;;5072905;28;20518;-57
2022/06/20 12:46:05;;;;;;;0.43;0.43;;;27.70;84.10;;;;;;5007660;28;20061;-56
2022/06/20 12:48:41;;;;;;;0.38;0.38;;;27.70;84.10;;;;;;4991868;28;20050;-55
2022/06/20 12:51:27;;;;;;;2.17;1.42;;;27.70;84.10;;;;;;5024290;28;20050;-58
2022/06/20 12:54:16;;;;;;;0.20;0.20;;;27.70;84.10;;;;;;5008762;28;20053;-57
2022/06/20 12:56:49;;;;;;;0.20;0.20;;;27.70;84.10;;;;;;5009205;28;20054;-60
2022/06/20 12:59:24;;;;;;;0.40;0.40;;;27.70;84.10;;;;;;5009032;28;20073;-57
2022/06/20 13:02:12;;;;;;;0.30;0.30;;;27.60;84.10;;;;;;5010311;28;20054;-58
2022/06/20 13:05:17;;;;;;;0.30;0.30;;;27.60;84.00;;;;;;5011483;28;20069;-59
2022/06/20 13:08:48;;;;;;;0.20;0.20;;;27.70;84.10;;;;;;5008636;28;20049;-58
2022/06/20 13:11:27;;;;;;;0.30;0.30;;;27.70;84.00;;;;;;4937365;29;20079;-57
2022/06/20 13:14:08;;;;;;;0.22;0.22;;;27.70;84.00;;;;;;4936992;29;20176;-61
2022/06/20 13:16:44;;;;;;;0.28;0.28;;;27.70;84.00;;;;;;4962091;28;20054;-60
2022/06/20 13:19:27;;;;;;;0.20;0.20;;;27.70;83.90;;;;;;4988932;28;20065;-58
2022/06/20 13:22:02;;;;;;;0.30;0.30;;;27.70;84.00;;;;;;4986653;28;20055;-58
2022/06/20 13:24:57;;;;;;;0.40;0.40;;;27.70;84.00;;;;;;4986832;28;20050;-59
2022/06/20 13:27:40;;;;;;;0.30;0.30;;;27.70;84.00;;;;;;4986371;28;20042;-60
2022/06/20 13:30:43;;;;;;;2.20;1.23;;;27.70;84.00;;;;;;4988262;28;20070;-60
2022/06/20 13:33:48;;;;;;;0.20;0.20;;;27.70;84.00;;;;;;4989907;28;20153;-57
2022/06/20 13:36:33;;;;;;;0.85;0.60;;;27.70;83.90;;;;;;4987629;28;20066;-59
2022/06/20 13:39:34;;;;;;;0.30;0.30;;;27.70;83.90;;;;;;4986740;28;20050;-56
2022/06/20 13:42:31;;;;;;;0.98;0.68;;;27.70;83.80;;;;;;5021898;28;20052;-59
2022/06/20 13:45:25;;;;;;;0.40;0.40;;;27.70;83.90;;;;;;5055766;28;20034;-58
2022/06/20 13:48:00;;;;;;;0.20;0.20;;;27.70;83.90;;;;;;5063280;28;20063;-59
2022/06/20 13:50:51;;;;;;;0.20;0.20;;;27.60;83.90;;;;;;5059016;28;20110;-59
2022/06/20 13:53:33;;;;;;;0.57;0.32;;;27.60;83.80;;;;;;5060368;28;20147;-57
2022/06/20 13:56:19;;;;;;;0.20;0.20;;;27.70;83.80;;;;;;5067538;28;20341;-59
2022/06/20 13:58:54;;;;;;;0.43;0.43;;;27.70;83.80;;;;;;5048795;28;20057;-55
2022/06/20 14:01:31;;;;;;;1.17;0.40;;;27.70;83.80;;;;;;5054581;28;20128;-58
2022/06/20 14:04:02;;;;;;;0.20;0.20;;;27.70;83.80;;;;;;5050553;28;20045;-58